Terminal Aerodrome Forecast
Issued by NWS

Home | Current Version | Previous Version | Graphics & Text | Print | Product List | Glossary On
Versions: 1 2 3 4 5 6 7 8 9 10 11 12 13 14 15 16 17 18 19 20 21 22 23 24 25 26 27 28 29 30
000
FTUS43 KLOT 280500
TAFMDW
TAF
KMDW 280526Z 2806/2906 21015G25KT 6SM SHRA BR VCTS SCT020 OVC045CB
     FM280900 27013G22KT P6SM SCT020 BKN120
     FM281500 26019G30KT P6SM FEW250
     FM290000 26012KT P6SM FEW035=

USA.gov is the U.S. government's official web portal to all federal, state and local government web resources and services.